Pagina principale
METAR-TAF:

METAR-TAF

Aeroporti :

Aeroporto Internazionale di Riga

Riga, Lettonia

latitudine: 56-55N, longitudine: 023-58E, altezza: 10 m

Osservazione

Il bollettino è stato emesso 10 minuti fa, alle 23:20 UTC
Vento 7 kt da sud
Temperature 8°C
Umidità 81%
Pressione 1021 hPa
Visibilità 10 km o più
nessuna nube inferiore a 1500 m e nessun cumulonembo

METAR: EVRA 152320Z 19007KT CAVOK 08/05 Q1021 R18/090095 NOSIG

Ora: 02:30 (23:30 UTC)

Previsione

Il bollettino è stato emesso 3 ore e 27 minuti fa, alle 20:03 UTC
Previsione valida dal 15 alle 21 UTC al 16 alle 21 UTC
Vento 7 kt da sud
Visibilità 10 km o più
nessuna nube inferiore a 1500 m e nessun cumulonembo

TAF: EVRA 152003Z 1521/1621 17007KT CAVOK

Osservazioni e previsioni meteorologiche di più di 4000 aeroporti (messaggi METAR e TAF).

Le stazioni disponibili sono rappresentate dai dischi gialli e rossi sulla carta.

Puntare il mouse per vedere il nome della stazione.

Clicca sopra per visualizzare le osservazioni e previsioni meteorologiche.

Per cambiare la mappa : fare clic sui pulsanti verdi con una croce nera per ingrandire, il pulsante verde con un trattino per diminuire, o sulla freccia verde per le mappe adiacenti.


METAR-TAF: